Allouez, Michigan
Current Conditions -  °F | °C
As of 11:53 PM on Tuesday 21 Oct 2014 (Local Time) from KCMX Reporting Station
Clear Clear  
Wind Chill: 29°   Ceiling: Unl
Heat Index: 35°   Visibility: 10mi
Dew Point: 31°   Wind: 8mph
Humidity: 85%   Direction: 120°ESE
Pressure: 30.29"   Gusts: NA
Location:  47.29°N, 88.41°W
Report Text: KCMX 220353Z AUTO 12007KT 10SM CLR 02/M01 A3029 RMK AO2 SLP267 T00171006
Loading
Personal Weather Stations






























Interactive Weather Map
Tropical Storm Tracking
New forecast layout! Learn more

10-Day Weather Forecast

Advertisements
Track Severe Weather on mobile